sensor_id;sensor_type;location;lat;lon;timestamp;pressure;altitude;pressure_sealevel;temperature;humidity
79028;BME280;68427;48.476;19.102;2023-07-16T00:00:59;97529.72;;;17.48;80.68
79028;BME280;68427;48.476;19.102;2023-07-16T00:03:24;97534.91;;;17.43;81.44
79028;BME280;68427;48.476;19.102;2023-07-16T00:05:50;97525.84;;;17.39;81.59
79028;BME280;68427;48.476;19.102;2023-07-16T00:08:16;97534.03;;;17.37;81.16
79028;BME280;68427;48.476;19.102;2023-07-16T00:10:43;97533.94;;;17.32;81.28
79028;BME280;68427;48.476;19.102;2023-07-16T00:13:09;97525.09;;;17.26;82.03
79028;BME280;68427;48.476;19.102;2023-07-16T00:15:35;97522.44;;;17.26;82.39
79028;BME280;68427;48.476;19.102;2023-07-16T00:18:00;97530.16;;;17.28;81.98
79028;BME280;68427;48.476;19.102;2023-07-16T00:20:26;97530.16;;;17.28;81.18
79028;BME280;68427;48.476;19.102;2023-07-16T00:22:52;97521.09;;;17.24;81.06
79028;BME280;68427;48.476;19.102;2023-07-16T00:25:17;97519.22;;;17.24;81.05
79028;BME280;68427;48.476;19.102;2023-07-16T00:27:44;97518.66;;;17.22;80.67
79028;BME280;68427;48.476;19.102;2023-07-16T00:30:10;97519.13;;;17.19;81.57
79028;BME280;68427;48.476;19.102;2023-07-16T00:32:36;97514.53;;;17.15;81.18
79028;BME280;68427;48.476;19.102;2023-07-16T00:35:02;97522.38;;;17.10;81.36
79028;BME280;68427;48.476;19.102;2023-07-16T00:37:28;97522.16;;;17.11;81.16
79028;BME280;68427;48.476;19.102;2023-07-16T00:39:53;97521.97;;;17.01;81.41
79028;BME280;68427;48.476;19.102;2023-07-16T00:42:19;97514.75;;;16.96;82.01
79028;BME280;68427;48.476;19.102;2023-07-16T00:44:46;97519.81;;;16.98;81.74
79028;BME280;68427;48.476;19.102;2023-07-16T00:47:12;97526.59;;;16.94;80.93
79028;BME280;68427;48.476;19.102;2023-07-16T00:49:38;97520.84;;;16.85;81.87
79028;BME280;68427;48.476;19.102;2023-07-16T00:52:05;97521.69;;;16.86;81.96
79028;BME280;68427;48.476;19.102;2023-07-16T00:54:31;97531.69;;;16.83;81.79
79028;BME280;68427;48.476;19.102;2023-07-16T00:56:57;97527.19;;;16.84;82.04
79028;BME280;68427;48.476;19.102;2023-07-16T00:59:22;97532.16;;;16.80;82.38
79028;BME280;68427;48.476;19.102;2023-07-16T01:01:50;97523.66;;;16.78;82.58
79028;BME280;68427;48.476;19.102;2023-07-16T01:04:15;97523.50;;;16.73;82.11
79028;BME280;68427;48.476;19.102;2023-07-16T01:06:44;97509.13;;;16.69;82.58
79028;BME280;68427;48.476;19.102;2023-07-16T01:09:13;97510.31;;;16.61;84.42
79028;BME280;68427;48.476;19.102;2023-07-16T01:11:42;97513.53;;;16.63;83.11
79028;BME280;68427;48.476;19.102;2023-07-16T01:14:08;97510.63;;;16.65;82.54
79028;BME280;68427;48.476;19.102;2023-07-16T01:16:34;97515.38;;;16.63;82.24
79028;BME280;68427;48.476;19.102;2023-07-16T01:19:01;97515.50;;;16.56;82.62
79028;BME280;68427;48.476;19.102;2023-07-16T01:21:28;97510.19;;;16.56;82.23
79028;BME280;68427;48.476;19.102;2023-07-16T01:27:17;97506.53;;;16.46;84.12
79028;BME280;68427;48.476;19.102;2023-07-16T01:29:51;97507.25;;;16.41;83.92
79028;BME280;68427;48.476;19.102;2023-07-16T01:32:20;97491.59;;;16.39;84.16
79028;BME280;68427;48.476;19.102;2023-07-16T01:34:47;97497.94;;;16.38;83.71
79028;BME280;68427;48.476;19.102;2023-07-16T01:37:14;97492.06;;;16.36;83.66
79028;BME280;68427;48.476;19.102;2023-07-16T01:39:40;97496.31;;;16.37;83.27
79028;BME280;68427;48.476;19.102;2023-07-16T01:42:06;97491.47;;;16.34;83.22
79028;BME280;68427;48.476;19.102;2023-07-16T01:44:32;97489.41;;;16.36;82.71
79028;BME280;68427;48.476;19.102;2023-07-16T01:47:10;97492.06;;;16.36;82.70
79028;BME280;68427;48.476;19.102;2023-07-16T01:49:36;97486.44;;;16.33;82.72
79028;BME280;68427;48.476;19.102;2023-07-16T01:52:03;97493.13;;;16.24;82.92
79028;BME280;68427;48.476;19.102;2023-07-16T01:54:29;97492.53;;;16.22;82.76
79028;BME280;68427;48.476;19.102;2023-07-16T01:56:54;97485.66;;;16.20;83.07
79028;BME280;68427;48.476;19.102;2023-07-16T01:59:20;97490.56;;;16.17;83.34
79028;BME280;68427;48.476;19.102;2023-07-16T02:01:46;97492.53;;;16.10;83.66
79028;BME280;68427;48.476;19.102;2023-07-16T02:04:13;97493.69;;;16.14;83.25
79028;BME280;68427;48.476;19.102;2023-07-16T02:06:38;97498.38;;;16.12;82.87
79028;BME280;68427;48.476;19.102;2023-07-16T02:09:04;97495.16;;;16.10;82.68
79028;BME280;68427;48.476;19.102;2023-07-16T02:11:30;97490.59;;;16.05;83.10
79028;BME280;68427;48.476;19.102;2023-07-16T02:13:55;97490.47;;;16.00;83.58
79028;BME280;68427;48.476;19.102;2023-07-16T02:16:21;97488.66;;;16.01;83.67
79028;BME280;68427;48.476;19.102;2023-07-16T02:18:47;97494.72;;;16.01;83.70
79028;BME280;68427;48.476;19.102;2023-07-16T02:21:14;97489.09;;;15.97;84.19
79028;BME280;68427;48.476;19.102;2023-07-16T02:23:39;97474.28;;;15.96;83.55
79028;BME280;68427;48.476;19.102;2023-07-16T02:26:05;97479.78;;;15.95;83.25
79028;BME280;68427;48.476;19.102;2023-07-16T02:28:31;97473.25;;;15.97;82.74
79028;BME280;68427;48.476;19.102;2023-07-16T02:30:58;97487.25;;;15.98;82.43
79028;BME280;68427;48.476;19.102;2023-07-16T02:33:23;97480.69;;;15.89;82.61
79028;BME280;68427;48.476;19.102;2023-07-16T02:35:50;97480.13;;;15.87;82.40
79028;BME280;68427;48.476;19.102;2023-07-16T02:38:18;97478.63;;;15.79;82.76
79028;BME280;68427;48.476;19.102;2023-07-16T02:40:44;97486.22;;;15.75;83.18
79028;BME280;68427;48.476;19.102;2023-07-16T02:43:10;97491.97;;;15.72;83.19
79028;BME280;68427;48.476;19.102;2023-07-16T02:45:36;97491.44;;;15.64;83.24
79028;BME280;68427;48.476;19.102;2023-07-16T02:48:02;97487.19;;;15.63;82.67
79028;BME280;68427;48.476;19.102;2023-07-16T02:50:28;97483.41;;;15.59;82.47
79028;BME280;68427;48.476;19.102;2023-07-16T02:52:53;97483.19;;;15.60;82.14
79028;BME280;68427;48.476;19.102;2023-07-16T02:55:21;97489.13;;;15.55;82.45
79028;BME280;68427;48.476;19.102;2023-07-16T02:57:46;97481.44;;;15.54;82.44
79028;BME280;68427;48.476;19.102;2023-07-16T03:00:12;97477.19;;;15.53;82.42
79028;BME280;68427;48.476;19.102;2023-07-16T03:02:38;97487.28;;;15.56;82.79
79028;BME280;68427;48.476;19.102;2023-07-16T03:05:04;97484.06;;;15.54;82.59
79028;BME280;68427;48.476;19.102;2023-07-16T03:07:30;97482.09;;;15.49;82.67
79028;BME280;68427;48.476;19.102;2023-07-16T03:09:56;97485.41;;;15.45;82.87
79028;BME280;68427;48.476;19.102;2023-07-16T03:12:23;97491.59;;;15.39;83.21
79028;BME280;68427;48.476;19.102;2023-07-16T03:14:50;97494.25;;;15.39;83.27
79028;BME280;68427;48.476;19.102;2023-07-16T03:17:15;97487.38;;;15.38;83.44
79028;BME280;68427;48.476;19.102;2023-07-16T03:19:41;97488.97;;;15.39;83.90
79028;BME280;68427;48.476;19.102;2023-07-16T03:22:07;97488.38;;;15.37;84.39
79028;BME280;68427;48.476;19.102;2023-07-16T03:24:33;97490.34;;;15.41;83.65
79028;BME280;68427;48.476;19.102;2023-07-16T03:26:58;97498.84;;;15.43;83.57
79028;BME280;68427;48.476;19.102;2023-07-16T03:29:25;97497.69;;;15.39;84.16
79028;BME280;68427;48.476;19.102;2023-07-16T03:31:51;97488.63;;;15.35;84.80
79028;BME280;68427;48.476;19.102;2023-07-16T03:34:17;97488.03;;;15.33;84.75
79028;BME280;68427;48.476;19.102;2023-07-16T03:36:42;97493.06;;;15.34;85.16
79028;BME280;68427;48.476;19.102;2023-07-16T03:39:08;97496.09;;;15.38;84.86
79028;BME280;68427;48.476;19.102;2023-07-16T03:41:34;97486.53;;;15.37;84.44
79028;BME280;68427;48.476;19.102;2023-07-16T03:43:59;97494.38;;;15.44;83.79
79028;BME280;68427;48.476;19.102;2023-07-16T03:46:26;97502.41;;;15.49;83.42
79028;BME280;68427;48.476;19.102;2023-07-16T03:48:53;97500.72;;;15.54;83.52
79028;BME280;68427;48.476;19.102;2023-07-16T03:51:19;97499.56;;;15.62;82.96
79028;BME280;68427;48.476;19.102;2023-07-16T03:53:44;97495.34;;;15.61;83.00
79028;BME280;68427;48.476;19.102;2023-07-16T03:56:10;97508.53;;;15.61;82.96
79028;BME280;68427;48.476;19.102;2023-07-16T03:58:36;97507.25;;;15.52;84.10
79028;BME280;68427;48.476;19.102;2023-07-16T04:01:01;97503.59;;;15.53;84.17
79028;BME280;68427;48.476;19.102;2023-07-16T04:03:29;97507.38;;;15.57;84.10
79028;BME280;68427;48.476;19.102;2023-07-16T04:06:01;97513.47;;;15.58;84.89
79028;BME280;68427;48.476;19.102;2023-07-16T04:08:27;97515.53;;;15.67;84.32
79028;BME280;68427;48.476;19.102;2023-07-16T04:10:53;97528.53;;;15.69;84.81
79028;BME280;68427;48.476;19.102;2023-07-16T04:13:18;97528.47;;;15.75;84.56
79028;BME280;68427;48.476;19.102;2023-07-16T04:15:44;97526.84;;;15.74;85.22
79028;BME280;68427;48.476;19.102;2023-07-16T04:18:09;97532.50;;;15.78;85.46
79028;BME280;68427;48.476;19.102;2023-07-16T04:20:37;97534.00;;;15.86;85.38
79028;BME280;68427;48.476;19.102;2023-07-16T04:23:02;97535.97;;;15.90;85.10
79028;BME280;68427;48.476;19.102;2023-07-16T04:25:28;97537.47;;;15.98;84.61
79028;BME280;68427;48.476;19.102;2023-07-16T04:27:54;97533.09;;;16.04;84.97
79028;BME280;68427;48.476;19.102;2023-07-16T04:30:19;97539.28;;;16.09;85.07
79028;BME280;68427;48.476;19.102;2023-07-16T04:32:45;97539.88;;;16.11;85.97
79028;BME280;68427;48.476;19.102;2023-07-16T04:35:11;97534.50;;;16.18;85.18
79028;BME280;68427;48.476;19.102;2023-07-16T04:37:38;97529.31;;;16.23;85.43
79028;BME280;68427;48.476;19.102;2023-07-16T04:40:05;97545.88;;;16.30;86.04
79028;BME280;68427;48.476;19.102;2023-07-16T04:42:30;97536.53;;;16.39;85.47
79028;BME280;68427;48.476;19.102;2023-07-16T04:44:56;97539.28;;;16.45;85.40
79028;BME280;68427;48.476;19.102;2023-07-16T04:47:22;97538.13;;;16.52;85.86
79028;BME280;68427;48.476;19.102;2023-07-16T04:49:47;97540.66;;;16.59;86.16
79028;BME280;68427;48.476;19.102;2023-07-16T04:52:13;97549.03;;;16.68;86.11
79028;BME280;68427;48.476;19.102;2023-07-16T04:54:40;97549.50;;;16.76;86.25
79028;BME280;68427;48.476;19.102;2023-07-16T04:57:06;97548.34;;;16.84;86.22
79028;BME280;68427;48.476;19.102;2023-07-16T04:59:32;97547.97;;;16.92;86.88
79028;BME280;68427;48.476;19.102;2023-07-16T05:01:58;97551.66;;;17.03;87.14
79028;BME280;68427;48.476;19.102;2023-07-16T05:04:24;97554.25;;;17.15;86.54
79028;BME280;68427;48.476;19.102;2023-07-16T05:06:50;97552.16;;;17.28;85.59
79028;BME280;68427;48.476;19.102;2023-07-16T05:09:15;97544.47;;;17.44;85.79
79028;BME280;68427;48.476;19.102;2023-07-16T05:11:42;97546.34;;;17.60;85.33
79028;BME280;68427;48.476;19.102;2023-07-16T05:14:08;97548.91;;;17.84;84.63
79028;BME280;68427;48.476;19.102;2023-07-16T05:16:34;97543.78;;;18.11;82.67
79028;BME280;68427;48.476;19.102;2023-07-16T05:18:59;97539.16;;;18.40;82.27
79028;BME280;68427;48.476;19.102;2023-07-16T05:21:25;97549.88;;;18.67;81.51
79028;BME280;68427;48.476;19.102;2023-07-16T05:23:51;97551.91;;;18.99;80.14
79028;BME280;68427;48.476;19.102;2023-07-16T05:26:17;97555.63;;;19.25;79.14
79028;BME280;68427;48.476;19.102;2023-07-16T05:28:44;97555.88;;;19.51;77.85
79028;BME280;68427;48.476;19.102;2023-07-16T05:31:09;97556.47;;;19.80;76.83
79028;BME280;68427;48.476;19.102;2023-07-16T05:33:37;97557.50;;;20.11;76.03
79028;BME280;68427;48.476;19.102;2023-07-16T05:36:03;97558.53;;;20.42;75.42
79028;BME280;68427;48.476;19.102;2023-07-16T05:38:29;97558.19;;;20.71;73.72
79028;BME280;68427;48.476;19.102;2023-07-16T05:41:00;97557.28;;;21.03;73.06
79028;BME280;68427;48.476;19.102;2023-07-16T05:43:26;97556.03;;;21.36;72.18
79028;BME280;68427;48.476;19.102;2023-07-16T05:45:53;97562.78;;;21.69;71.50
79028;BME280;68427;48.476;19.102;2023-07-16T05:48:18;97559.09;;;22.11;70.18
79028;BME280;68427;48.476;19.102;2023-07-16T05:50:44;97563.34;;;22.53;67.80
79028;BME280;68427;48.476;19.102;2023-07-16T05:53:10;97559.50;;;22.90;66.19
79028;BME280;68427;48.476;19.102;2023-07-16T05:55:36;97565.53;;;23.21;64.57
79028;BME280;68427;48.476;19.102;2023-07-16T05:58:02;97562.91;;;23.61;62.72
79028;BME280;68427;48.476;19.102;2023-07-16T06:00:27;97569.31;;;24.04;61.60
79028;BME280;68427;48.476;19.102;2023-07-16T06:02:55;97566.19;;;24.26;60.90
79028;BME280;68427;48.476;19.102;2023-07-16T06:05:22;97560.69;;;24.71;59.02
79028;BME280;68427;48.476;19.102;2023-07-16T06:07:49;97563.72;;;25.31;58.14
79028;BME280;68427;48.476;19.102;2023-07-16T06:10:15;97563.94;;;25.73;56.62
79028;BME280;68427;48.476;19.102;2023-07-16T06:12:41;97561.38;;;26.00;55.03
79028;BME280;68427;48.476;19.102;2023-07-16T06:15:07;97562.91;;;26.39;53.66
79028;BME280;68427;48.476;19.102;2023-07-16T06:17:33;97564.53;;;27.23;51.38
79028;BME280;68427;48.476;19.102;2023-07-16T06:20:00;97559.81;;;27.43;49.81
79028;BME280;68427;48.476;19.102;2023-07-16T06:22:25;97559.91;;;27.51;49.42
79028;BME280;68427;48.476;19.102;2023-07-16T06:24:51;97546.25;;;27.84;50.12
79028;BME280;68427;48.476;19.102;2023-07-16T06:27:17;97550.31;;;28.49;48.11
79028;BME280;68427;48.476;19.102;2023-07-16T06:29:42;97551.81;;;28.73;47.21
79028;BME280;68427;48.476;19.102;2023-07-16T06:32:09;97549.81;;;28.87;47.39
79028;BME280;68427;48.476;19.102;2023-07-16T06:34:34;97553.25;;;29.19;46.01
79028;BME280;68427;48.476;19.102;2023-07-16T06:37:01;97549.47;;;29.55;45.19
79028;BME280;68427;48.476;19.102;2023-07-16T06:39:27;97551.03;;;29.64;44.54
79028;BME280;68427;48.476;19.102;2023-07-16T06:41:53;97540.09;;;29.17;45.91
79028;BME280;68427;48.476;19.102;2023-07-16T06:44:18;97549.94;;;29.57;44.90
79028;BME280;68427;48.476;19.102;2023-07-16T06:46:44;97548.38;;;29.90;44.02
79028;BME280;68427;48.476;19.102;2023-07-16T06:49:10;97541.50;;;30.28;43.20
79028;BME280;68427;48.476;19.102;2023-07-16T06:51:36;97543.94;;;30.97;41.93
79028;BME280;68427;48.476;19.102;2023-07-16T06:54:03;97543.50;;;31.37;39.73
79028;BME280;68427;48.476;19.102;2023-07-16T06:56:28;97548.88;;;31.67;38.69
79028;BME280;68427;48.476;19.102;2023-07-16T06:58:54;97545.03;;;32.22;38.99
79028;BME280;68427;48.476;19.102;2023-07-16T07:01:20;97536.81;;;32.31;36.54
79028;BME280;68427;48.476;19.102;2023-07-16T07:03:46;97540.59;;;32.63;35.99
79028;BME280;68427;48.476;19.102;2023-07-16T07:06:11;97533.91;;;33.10;35.49
79028;BME280;68427;48.476;19.102;2023-07-16T07:08:37;97525.53;;;33.68;34.52
79028;BME280;68427;48.476;19.102;2023-07-16T07:11:04;97532.63;;;34.45;33.25
79028;BME280;68427;48.476;19.102;2023-07-16T07:13:30;97529.91;;;34.60;32.18
79028;BME280;68427;48.476;19.102;2023-07-16T07:15:56;97526.19;;;35.55;30.44
79028;BME280;68427;48.476;19.102;2023-07-16T07:18:23;97528.13;;;35.55;30.75
79028;BME280;68427;48.476;19.102;2023-07-16T07:20:49;97527.13;;;35.08;29.87
79028;BME280;68427;48.476;19.102;2023-07-16T07:23:15;97525.28;;;35.67;29.81
79028;BME280;68427;48.476;19.102;2023-07-16T07:25:41;97517.06;;;35.86;30.19
79028;BME280;68427;48.476;19.102;2023-07-16T07:28:08;97518.72;;;36.10;28.58
79028;BME280;68427;48.476;19.102;2023-07-16T07:30:34;97510.66;;;36.18;28.53
79028;BME280;68427;48.476;19.102;2023-07-16T07:32:59;97514.19;;;37.17;28.15
79028;BME280;68427;48.476;19.102;2023-07-16T07:35:25;97518.25;;;37.57;28.23
79028;BME280;68427;48.476;19.102;2023-07-16T07:37:51;97516.66;;;37.90;27.78
79028;BME280;68427;48.476;19.102;2023-07-16T07:40:17;97519.25;;;38.17;26.33
79028;BME280;68427;48.476;19.102;2023-07-16T07:42:42;97510.50;;;38.89;25.71
79028;BME280;68427;48.476;19.102;2023-07-16T07:45:10;97519.69;;;39.29;25.46
79028;BME280;68427;48.476;19.102;2023-07-16T07:47:36;97509.50;;;38.19;25.64
79028;BME280;68427;48.476;19.102;2023-07-16T07:50:01;97502.53;;;38.25;26.16
79028;BME280;68427;48.476;19.102;2023-07-16T07:52:27;97510.44;;;39.56;25.09
79028;BME280;68427;48.476;19.102;2023-07-16T07:54:53;97504.88;;;39.34;25.83
79028;BME280;68427;48.476;19.102;2023-07-16T07:57:19;97503.13;;;39.99;25.91
79028;BME280;68427;48.476;19.102;2023-07-16T07:59:45;97500.03;;;40.40;24.02
79028;BME280;68427;48.476;19.102;2023-07-16T08:02:12;97501.16;;;39.89;24.35
79028;BME280;68427;48.476;19.102;2023-07-16T08:04:38;97506.72;;;40.25;23.75
79028;BME280;68427;48.476;19.102;2023-07-16T08:07:04;97503.91;;;41.03;24.15
79028;BME280;68427;48.476;19.102;2023-07-16T08:09:30;97508.22;;;41.19;23.34
79028;BME280;68427;48.476;19.102;2023-07-16T08:11:56;97501.03;;;41.54;22.59
79028;BME280;68427;48.476;19.102;2023-07-16T08:14:21;97502.41;;;40.42;24.00
79028;BME280;68427;48.476;19.102;2023-07-16T08:16:47;97502.25;;;41.35;22.70
79028;BME280;68427;48.476;19.102;2023-07-16T08:19:14;97507.69;;;41.56;21.85
79028;BME280;68427;48.476;19.102;2023-07-16T08:21:40;97507.09;;;40.27;23.38
79028;BME280;68427;48.476;19.102;2023-07-16T08:24:05;97503.00;;;39.60;25.55
79028;BME280;68427;48.476;19.102;2023-07-16T08:26:33;97512.03;;;39.64;25.49
79028;BME280;68427;48.476;19.102;2023-07-16T08:28:58;97493.63;;;39.64;24.47
79028;BME280;68427;48.476;19.102;2023-07-16T08:31:26;97484.53;;;38.73;25.89
79028;BME280;68427;48.476;19.102;2023-07-16T08:33:52;97505.88;;;39.04;26.31
79028;BME280;68427;48.476;19.102;2023-07-16T08:36:19;97502.63;;;39.61;24.54
79028;BME280;68427;48.476;19.102;2023-07-16T08:38:45;97491.78;;;40.79;23.41
79028;BME280;68427;48.476;19.102;2023-07-16T08:41:10;97493.44;;;41.72;22.88
79028;BME280;68427;48.476;19.102;2023-07-16T08:43:36;97496.88;;;41.91;21.75
79028;BME280;68427;48.476;19.102;2023-07-16T08:46:04;97499.84;;;42.21;22.08
79028;BME280;68427;48.476;19.102;2023-07-16T08:48:29;97503.25;;;42.36;21.23
79028;BME280;68427;48.476;19.102;2023-07-16T08:50:55;97509.91;;;43.25;21.08
79028;BME280;68427;48.476;19.102;2023-07-16T08:53:24;97517.25;;;42.60;20.90
79028;BME280;68427;48.476;19.102;2023-07-16T08:55:50;97511.97;;;43.48;20.04
79028;BME280;68427;48.476;19.102;2023-07-16T08:58:17;97514.75;;;42.72;21.41
79028;BME280;68427;48.476;19.102;2023-07-16T09:00:43;97504.91;;;43.13;20.31
79028;BME280;68427;48.476;19.102;2023-07-16T09:03:10;97512.78;;;43.11;21.04
79028;BME280;68427;48.476;19.102;2023-07-16T09:05:37;97519.41;;;44.13;19.96
79028;BME280;68427;48.476;19.102;2023-07-16T09:08:02;97513.09;;;44.63;19.22
79028;BME280;68427;48.476;19.102;2023-07-16T09:10:30;97519.81;;;44.38;19.75
79028;BME280;68427;48.476;19.102;2023-07-16T09:12:57;97522.84;;;44.48;19.15
79028;BME280;68427;48.476;19.102;2023-07-16T09:15:24;97513.97;;;43.78;19.61
79028;BME280;68427;48.476;19.102;2023-07-16T09:17:50;97516.53;;;43.93;19.74
79028;BME280;68427;48.476;19.102;2023-07-16T09:20:16;97511.66;;;43.77;20.31
79028;BME280;68427;48.476;19.102;2023-07-16T09:22:42;97515.72;;;44.47;20.02
79028;BME280;68427;48.476;19.102;2023-07-16T09:25:09;97507.16;;;44.41;18.80
79028;BME280;68427;48.476;19.102;2023-07-16T09:27:36;97512.41;;;44.32;19.30
79028;BME280;68427;48.476;19.102;2023-07-16T09:30:03;97521.75;;;43.87;21.72
79028;BME280;68427;48.476;19.102;2023-07-16T09:32:34;97521.31;;;44.19;19.45
79028;BME280;68427;48.476;19.102;2023-07-16T09:35:00;97519.50;;;44.56;19.05
79028;BME280;68427;48.476;19.102;2023-07-16T09:37:26;97522.38;;;43.98;18.76
79028;BME280;68427;48.476;19.102;2023-07-16T09:39:53;97520.72;;;44.55;19.41
79028;BME280;68427;48.476;19.102;2023-07-16T09:42:19;97523.84;;;44.07;20.55
79028;BME280;68427;48.476;19.102;2023-07-16T09:44:48;97521.13;;;44.30;18.86
79028;BME280;68427;48.476;19.102;2023-07-16T09:47:14;97518.28;;;44.34;19.05
79028;BME280;68427;48.476;19.102;2023-07-16T09:49:40;97521.84;;;43.49;19.68
79028;BME280;68427;48.476;19.102;2023-07-16T09:52:06;97519.94;;;43.77;20.24
79028;BME280;68427;48.476;19.102;2023-07-16T09:54:32;97527.22;;;43.91;18.56
79028;BME280;68427;48.476;19.102;2023-07-16T09:57:02;97513.63;;;44.04;19.04
79028;BME280;68427;48.476;19.102;2023-07-16T09:59:32;97521.75;;;43.87;19.39
79028;BME280;68427;48.476;19.102;2023-07-16T10:02:01;97515.16;;;44.08;18.80
79028;BME280;68427;48.476;19.102;2023-07-16T10:04:38;97509.31;;;44.53;18.84
79028;BME280;68427;48.476;19.102;2023-07-16T10:07:05;97504.06;;;43.20;20.17
79028;BME280;68427;48.476;19.102;2023-07-16T10:09:35;97507.00;;;43.02;19.76
79028;BME280;68427;48.476;19.102;2023-07-16T10:12:11;97502.78;;;41.89;21.73
79028;BME280;68427;48.476;19.102;2023-07-16T10:14:40;97498.19;;;41.72;21.78
79028;BME280;68427;48.476;19.102;2023-07-16T10:17:07;97504.00;;;42.44;21.57
79028;BME280;68427;48.476;19.102;2023-07-16T10:19:49;97509.53;;;42.44;21.28
79028;BME280;68427;48.476;19.102;2023-07-16T10:22:14;97497.34;;;42.38;20.39
79028;BME280;68427;48.476;19.102;2023-07-16T10:24:40;97496.28;;;42.69;20.19
79028;BME280;68427;48.476;19.102;2023-07-16T10:27:06;97494.06;;;42.54;19.50
79028;BME280;68427;48.476;19.102;2023-07-16T10:29:32;97508.75;;;43.53;20.24
79028;BME280;68427;48.476;19.102;2023-07-16T10:31:58;97502.38;;;43.29;20.51
79028;BME280;68427;48.476;19.102;2023-07-16T10:34:25;97506.72;;;42.47;21.04
79028;BME280;68427;48.476;19.102;2023-07-16T10:36:51;97500.41;;;40.89;21.59
79028;BME280;68427;48.476;19.102;2023-07-16T10:39:17;97501.78;;;42.21;20.88
79028;BME280;68427;48.476;19.102;2023-07-16T10:41:43;97511.44;;;41.95;21.69
79028;BME280;68427;48.476;19.102;2023-07-16T10:44:13;97503.53;;;40.94;22.68
79028;BME280;68427;48.476;19.102;2023-07-16T10:46:41;97502.47;;;41.73;21.12
79028;BME280;68427;48.476;19.102;2023-07-16T10:49:08;97504.31;;;41.97;21.41
79028;BME280;68427;48.476;19.102;2023-07-16T10:51:35;97506.66;;;41.00;21.43
79028;BME280;68427;48.476;19.102;2023-07-16T10:54:01;97493.78;;;41.81;20.80
79028;BME280;68427;48.476;19.102;2023-07-16T10:56:34;97507.50;;;40.29;23.00
79028;BME280;68427;48.476;19.102;2023-07-16T10:59:01;97496.06;;;40.95;22.46
79028;BME280;68427;48.476;19.102;2023-07-16T11:01:28;97498.63;;;41.56;22.14
79028;BME280;68427;48.476;19.102;2023-07-16T11:04:00;97494.34;;;41.44;21.90
79028;BME280;68427;48.476;19.102;2023-07-16T11:06:26;97493.13;;;42.22;21.20
79028;BME280;68427;48.476;19.102;2023-07-16T11:08:53;97492.09;;;42.54;21.05
79028;BME280;68427;48.476;19.102;2023-07-16T11:11:28;97491.00;;;40.65;22.89
79028;BME280;68427;48.476;19.102;2023-07-16T11:13:54;97497.53;;;41.39;22.40
79028;BME280;68427;48.476;19.102;2023-07-16T11:16:20;97490.47;;;41.31;21.41
79028;BME280;68427;48.476;19.102;2023-07-16T11:18:48;97496.13;;;40.30;23.31
79028;BME280;68427;48.476;19.102;2023-07-16T11:21:18;97491.38;;;40.02;23.95
79028;BME280;68427;48.476;19.102;2023-07-16T11:23:44;97496.09;;;39.98;23.49
79028;BME280;68427;48.476;19.102;2023-07-16T11:26:14;97495.31;;;40.66;23.39
79028;BME280;68427;48.476;19.102;2023-07-16T11:28:40;97496.88;;;40.59;22.40
79028;BME280;68427;48.476;19.102;2023-07-16T11:31:14;97490.38;;;41.56;21.82
79028;BME280;68427;48.476;19.102;2023-07-16T11:33:42;97495.28;;;38.99;24.05
79028;BME280;68427;48.476;19.102;2023-07-16T11:36:08;97483.69;;;38.65;25.07
79028;BME280;68427;48.476;19.102;2023-07-16T11:38:36;97492.03;;;39.60;24.73
79028;BME280;68427;48.476;19.102;2023-07-16T11:41:02;97489.06;;;40.51;23.22
79028;BME280;68427;48.476;19.102;2023-07-16T11:43:34;97480.84;;;40.69;22.79
79028;BME280;68427;48.476;19.102;2023-07-16T11:46:00;97483.19;;;40.34;21.88
79028;BME280;68427;48.476;19.102;2023-07-16T11:48:26;97478.44;;;40.17;22.31
79028;BME280;68427;48.476;19.102;2023-07-16T11:50:54;97486.31;;;40.36;22.94
79028;BME280;68427;48.476;19.102;2023-07-16T11:53:19;97474.09;;;39.87;23.39
79028;BME280;68427;48.476;19.102;2023-07-16T11:55:45;97482.28;;;38.89;23.35
79028;BME280;68427;48.476;19.102;2023-07-16T11:58:11;97478.56;;;38.60;25.07
79028;BME280;68427;48.476;19.102;2023-07-16T12:00:38;97483.56;;;38.47;25.01
79028;BME280;68427;48.476;19.102;2023-07-16T12:03:04;97472.03;;;38.27;25.69
79028;BME280;68427;48.476;19.102;2023-07-16T12:05:30;97477.13;;;38.25;25.33
79028;BME280;68427;48.476;19.102;2023-07-16T12:07:55;97482.41;;;38.03;25.57
79028;BME280;68427;48.476;19.102;2023-07-16T12:10:21;97473.19;;;38.22;25.43
79028;BME280;68427;48.476;19.102;2023-07-16T12:12:47;97474.56;;;38.02;25.31
79028;BME280;68427;48.476;19.102;2023-07-16T12:15:13;97471.28;;;37.89;25.19
79028;BME280;68427;48.476;19.102;2023-07-16T12:17:40;97472.31;;;38.15;25.95
79028;BME280;68427;48.476;19.102;2023-07-16T12:20:06;97465.63;;;38.05;25.82
79028;BME280;68427;48.476;19.102;2023-07-16T12:22:32;97468.63;;;37.96;26.42
79028;BME280;68427;48.476;19.102;2023-07-16T12:24:58;97463.38;;;38.18;25.41
79028;BME280;68427;48.476;19.102;2023-07-16T12:27:24;97470.69;;;37.66;25.35
79028;BME280;68427;48.476;19.102;2023-07-16T12:29:49;97465.03;;;37.51;26.05
79028;BME280;68427;48.476;19.102;2023-07-16T12:32:15;97464.63;;;37.19;26.87
79028;BME280;68427;48.476;19.102;2023-07-16T12:34:42;97470.50;;;37.51;26.78
79028;BME280;68427;48.476;19.102;2023-07-16T12:37:08;97467.44;;;37.23;27.47
79028;BME280;68427;48.476;19.102;2023-07-16T12:39:33;97463.16;;;36.68;26.75
79028;BME280;68427;48.476;19.102;2023-07-16T12:41:59;97458.97;;;36.74;27.34
79028;BME280;68427;48.476;19.102;2023-07-16T12:44:25;97466.22;;;37.20;27.36
79028;BME280;68427;48.476;19.102;2023-07-16T12:46:50;97466.41;;;37.68;26.30
79028;BME280;68427;48.476;19.102;2023-07-16T12:49:16;97465.53;;;37.60;26.08